sensor_id;sensor_type;location;lat;lon;timestamp;pressure;altitude;pressure_sealevel;temperature;humidity
54503;BME280;40411;50.090;21.954;2024-03-22T00:01:48;64712.19;;;10.06;83.44
54503;BME280;40411;50.090;21.954;2024-03-22T00:04:16;64740.34;;;9.91;84.16
54503;BME280;40411;50.090;21.954;2024-03-22T00:06:44;64782.72;;;9.56;84.98
54503;BME280;40411;50.090;21.954;2024-03-22T00:09:10;64791.88;;;9.45;86.28
54503;BME280;40411;50.090;21.954;2024-03-22T00:11:39;64738.28;;;9.99;83.28
54503;BME280;40411;50.090;21.954;2024-03-22T00:14:05;64715.97;;;9.85;83.29
54503;BME280;40411;50.090;21.954;2024-03-22T00:16:31;64702.50;;;10.02;83.64
54503;BME280;40411;50.090;21.954;2024-03-22T00:18:57;64743.50;;;9.92;84.73
54503;BME280;40411;50.090;21.954;2024-03-22T00:21:23;64702.50;;;10.02;85.59
54503;BME280;40411;50.090;21.954;2024-03-22T00:23:49;64688.72;;;9.99;85.52
54503;BME280;40411;50.090;21.954;2024-03-22T00:26:15;64731.38;;;10.04;84.81
54503;BME280;40411;50.090;21.954;2024-03-22T00:28:41;64660.75;;;10.02;84.67
54503;BME280;40411;50.090;21.954;2024-03-22T00:31:08;64643.78;;;10.44;82.14
54503;BME280;40411;50.090;21.954;2024-03-22T00:33:35;64639.53;;;10.66;81.00
54503;BME280;40411;50.090;21.954;2024-03-22T00:36:00;64615.50;;;10.90;79.34
54503;BME280;40411;50.090;21.954;2024-03-22T00:38:27;64664.94;;;10.63;78.89
54503;BME280;40411;50.090;21.954;2024-03-22T00:40:53;64625.72;;;10.70;79.98
54503;BME280;40411;50.090;21.954;2024-03-22T00:43:21;64609.56;;;10.87;78.27
54503;BME280;40411;50.090;21.954;2024-03-22T00:45:47;64650.00;;;10.66;79.04
54503;BME280;40411;50.090;21.954;2024-03-22T00:48:13;64650.28;;;10.79;78.60
54503;BME280;40411;50.090;21.954;2024-03-22T00:50:39;64638.22;;;10.70;78.40
54503;BME280;40411;50.090;21.954;2024-03-22T00:53:05;64642.56;;;10.64;79.37
54503;BME280;40411;50.090;21.954;2024-03-22T00:55:33;64657.88;;;10.59;79.62
54503;BME280;40411;50.090;21.954;2024-03-22T00:58:00;64735.22;;;10.22;81.17
54503;BME280;40411;50.090;21.954;2024-03-22T01:00:26;64656.03;;;10.55;80.00
54503;BME280;40411;50.090;21.954;2024-03-22T01:02:52;64588.66;;;10.87;78.10
54503;BME280;40411;50.090;21.954;2024-03-22T01:05:17;64675.75;;;10.30;79.59
54503;BME280;40411;50.090;21.954;2024-03-22T01:07:43;64599.59;;;10.70;78.85
54503;BME280;40411;50.090;21.954;2024-03-22T01:10:10;64605.88;;;10.79;78.59
54503;BME280;40411;50.090;21.954;2024-03-22T01:12:37;64621.94;;;10.77;78.65
54503;BME280;40411;50.090;21.954;2024-03-22T01:15:05;64611.28;;;11.05;77.67
54503;BME280;40411;50.090;21.954;2024-03-22T01:17:33;64566.47;;;11.07;77.40
54503;BME280;40411;50.090;21.954;2024-03-22T01:19:58;64605.41;;;10.95;77.90
54503;BME280;40411;50.090;21.954;2024-03-22T01:22:24;64642.47;;;10.79;78.50
54503;BME280;40411;50.090;21.954;2024-03-22T01:24:50;64596.47;;;11.11;77.09
54503;BME280;40411;50.090;21.954;2024-03-22T01:27:16;64556.91;;;11.13;76.36
54503;BME280;40411;50.090;21.954;2024-03-22T01:29:42;64588.53;;;11.01;76.92
54503;BME280;40411;50.090;21.954;2024-03-22T01:32:08;64611.63;;;11.10;77.49
54503;BME280;40411;50.090;21.954;2024-03-22T01:34:34;64525.56;;;11.30;76.34
54503;BME280;40411;50.090;21.954;2024-03-22T01:37:03;64521.13;;;11.26;76.14
54503;BME280;40411;50.090;21.954;2024-03-22T01:39:28;64558.78;;;11.10;76.50
54503;BME280;40411;50.090;21.954;2024-03-22T01:41:55;64558.56;;;11.14;76.65
54503;BME280;40411;50.090;21.954;2024-03-22T01:44:27;64606.88;;;10.94;77.20
54503;BME280;40411;50.090;21.954;2024-03-22T01:46:53;64541.09;;;11.27;76.44
54503;BME280;40411;50.090;21.954;2024-03-22T01:49:19;64530.63;;;11.27;76.38
54503;BME280;40411;50.090;21.954;2024-03-22T01:51:45;64484.13;;;11.61;74.58
54503;BME280;40411;50.090;21.954;2024-03-22T01:54:11;64485.31;;;11.55;74.98
54503;BME280;40411;50.090;21.954;2024-03-22T01:56:38;64550.44;;;11.26;76.60
54503;BME280;40411;50.090;21.954;2024-03-22T01:59:04;64558.47;;;11.05;77.53
54503;BME280;40411;50.090;21.954;2024-03-22T02:01:31;64515.81;;;11.33;77.86
54503;BME280;40411;50.090;21.954;2024-03-22T02:03:57;64510.34;;;11.04;80.57
54503;BME280;40411;50.090;21.954;2024-03-22T02:06:23;64498.16;;;11.26;80.12
54503;BME280;40411;50.090;21.954;2024-03-22T02:08:49;64484.78;;;11.38;79.56
54503;BME280;40411;50.090;21.954;2024-03-22T02:11:15;64579.81;;;10.95;79.02
54503;BME280;40411;50.090;21.954;2024-03-22T02:13:41;64503.78;;;11.41;77.86
54503;BME280;40411;50.090;21.954;2024-03-22T02:16:09;64426.19;;;11.80;76.23
54503;BME280;40411;50.090;21.954;2024-03-22T02:18:34;64419.38;;;11.89;74.89
54503;BME280;40411;50.090;21.954;2024-03-22T02:21:01;64333.25;;;12.01;74.75
54503;BME280;40411;50.090;21.954;2024-03-22T02:23:32;64388.31;;;12.03;75.23
54503;BME280;40411;50.090;21.954;2024-03-22T02:25:58;64407.25;;;11.87;75.73
54503;BME280;40411;50.090;21.954;2024-03-22T02:28:24;64332.53;;;11.98;75.76
54503;BME280;40411;50.090;21.954;2024-03-22T02:30:50;64463.16;;;11.52;77.58
54503;BME280;40411;50.090;21.954;2024-03-22T02:33:16;64443.03;;;11.65;77.69
54503;BME280;40411;50.090;21.954;2024-03-22T02:35:42;64392.72;;;11.81;76.71
54503;BME280;40411;50.090;21.954;2024-03-22T02:38:08;64367.03;;;11.89;75.58
54503;BME280;40411;50.090;21.954;2024-03-22T02:40:34;64418.28;;;11.71;75.70
54503;BME280;40411;50.090;21.954;2024-03-22T02:43:00;64541.09;;;11.27;77.16
54503;BME280;40411;50.090;21.954;2024-03-22T02:45:27;64590.81;;;10.96;79.03
54503;BME280;40411;50.090;21.954;2024-03-22T02:47:52;64502.91;;;11.35;77.50
54503;BME280;40411;50.090;21.954;2024-03-22T02:50:18;64490.88;;;11.44;76.43
54503;BME280;40411;50.090;21.954;2024-03-22T02:52:44;64452.88;;;11.81;75.26
54503;BME280;40411;50.090;21.954;2024-03-22T02:55:10;64478.13;;;11.66;75.01
54503;BME280;40411;50.090;21.954;2024-03-22T02:57:36;64464.34;;;11.62;75.08
54503;BME280;40411;50.090;21.954;2024-03-22T03:00:02;64349.97;;;11.92;74.93
54503;BME280;40411;50.090;21.954;2024-03-22T03:02:29;64386.91;;;11.97;74.46
54503;BME280;40411;50.090;21.954;2024-03-22T03:04:55;64347.38;;;12.19;73.10
54503;BME280;40411;50.090;21.954;2024-03-22T03:07:20;64439.38;;;11.73;75.14
54503;BME280;40411;50.090;21.954;2024-03-22T03:09:46;64367.66;;;11.99;74.99
54503;BME280;40411;50.090;21.954;2024-03-22T03:12:12;64401.75;;;11.92;74.91
54503;BME280;40411;50.090;21.954;2024-03-22T03:14:38;64355.88;;;12.12;73.82
54503;BME280;40411;50.090;21.954;2024-03-22T03:17:04;64448.69;;;11.72;75.48
54503;BME280;40411;50.090;21.954;2024-03-22T03:19:30;64476.84;;;11.11;82.93
54503;BME280;40411;50.090;21.954;2024-03-22T03:21:56;64348.47;;;11.67;80.38
54503;BME280;40411;50.090;21.954;2024-03-22T03:24:22;64504.09;;;11.12;81.46
54503;BME280;40411;50.090;21.954;2024-03-22T03:26:48;64581.91;;;10.64;84.68
54503;BME280;40411;50.090;21.954;2024-03-22T03:29:17;64520.69;;;10.94;83.54
54503;BME280;40411;50.090;21.954;2024-03-22T03:31:43;64431.41;;;11.37;82.43
54503;BME280;40411;50.090;21.954;2024-03-22T03:34:09;64357.75;;;11.56;80.93
54503;BME280;40411;50.090;21.954;2024-03-22T03:36:34;64362.25;;;11.70;80.61
54503;BME280;40411;50.090;21.954;2024-03-22T03:39:00;64418.00;;;11.32;81.95
54503;BME280;40411;50.090;21.954;2024-03-22T03:41:26;64399.66;;;11.66;80.94
54503;BME280;40411;50.090;21.954;2024-03-22T03:43:52;64331.22;;;11.84;79.64
54503;BME280;40411;50.090;21.954;2024-03-22T03:46:18;64390.19;;;11.47;81.06
54503;BME280;40411;50.090;21.954;2024-03-22T03:48:44;64428.50;;;11.58;80.37
54503;BME280;40411;50.090;21.954;2024-03-22T03:51:10;64431.25;;;11.17;82.91
54503;BME280;40411;50.090;21.954;2024-03-22T03:53:36;64518.16;;;11.04;83.88
54503;BME280;40411;50.090;21.954;2024-03-22T03:56:02;64346.38;;;11.40;82.58
54503;BME280;40411;50.090;21.954;2024-03-22T03:58:28;64467.41;;;11.19;83.25
54503;BME280;40411;50.090;21.954;2024-03-22T04:00:54;64417.84;;;11.12;83.82
54503;BME280;40411;50.090;21.954;2024-03-22T04:03:20;64408.31;;;11.45;81.58
54503;BME280;40411;50.090;21.954;2024-03-22T04:05:45;64375.66;;;11.58;81.22
54503;BME280;40411;50.090;21.954;2024-03-22T04:08:11;64329.53;;;11.83;79.86
54503;BME280;40411;50.090;21.954;2024-03-22T04:10:37;64400.63;;;11.47;81.56
54503;BME280;40411;50.090;21.954;2024-03-22T04:13:03;64389.38;;;11.51;80.49
54503;BME280;40411;50.090;21.954;2024-03-22T04:15:34;64366.25;;;11.49;81.11
54503;BME280;40411;50.090;21.954;2024-03-22T04:18:00;64334.88;;;11.49;81.31
54503;BME280;40411;50.090;21.954;2024-03-22T04:20:26;64446.28;;;11.41;81.07
54503;BME280;40411;50.090;21.954;2024-03-22T04:22:52;64378.94;;;11.51;80.68
54503;BME280;40411;50.090;21.954;2024-03-22T04:25:19;64333.31;;;11.67;80.98
54503;BME280;40411;50.090;21.954;2024-03-22T04:27:45;64356.22;;;11.74;79.05
54503;BME280;40411;50.090;21.954;2024-03-22T04:30:11;64381.94;;;11.49;79.42
54503;BME280;40411;50.090;21.954;2024-03-22T04:32:37;64313.31;;;11.82;79.42
54503;BME280;40411;50.090;21.954;2024-03-22T04:35:03;64322.19;;;11.91;79.02
54503;BME280;40411;50.090;21.954;2024-03-22T04:37:29;64269.31;;;11.90;79.18
54503;BME280;40411;50.090;21.954;2024-03-22T04:39:55;64293.72;;;12.05;78.92
54503;BME280;40411;50.090;21.954;2024-03-22T04:42:21;64212.31;;;12.00;79.02
54503;BME280;40411;50.090;21.954;2024-03-22T04:44:47;64248.06;;;11.85;79.73
54503;BME280;40411;50.090;21.954;2024-03-22T04:47:13;64228.44;;;11.98;78.92
54503;BME280;40411;50.090;21.954;2024-03-22T04:49:39;64271.56;;;12.12;78.73
54503;BME280;40411;50.090;21.954;2024-03-22T04:52:05;64244.56;;;12.06;79.07
54503;BME280;40411;50.090;21.954;2024-03-22T04:54:31;64204.22;;;12.15;79.05
54503;BME280;40411;50.090;21.954;2024-03-22T04:56:57;64182.88;;;12.17;78.84
54503;BME280;40411;50.090;21.954;2024-03-22T04:59:23;64164.72;;;12.29;78.99
54503;BME280;40411;50.090;21.954;2024-03-22T05:01:49;64172.44;;;12.26;78.23
54503;BME280;40411;50.090;21.954;2024-03-22T05:04:15;64231.38;;;12.23;78.63
54503;BME280;40411;50.090;21.954;2024-03-22T05:06:41;64152.59;;;12.27;78.77
54503;BME280;40411;50.090;21.954;2024-03-22T05:09:07;64195.56;;;12.28;78.45
54503;BME280;40411;50.090;21.954;2024-03-22T05:11:36;64188.25;;;12.19;78.67
54503;BME280;40411;50.090;21.954;2024-03-22T05:14:01;64215.22;;;12.05;78.86
54503;BME280;40411;50.090;21.954;2024-03-22T05:16:28;64232.72;;;12.10;78.42
54503;BME280;40411;50.090;21.954;2024-03-22T05:18:54;64246.81;;;12.18;77.55
54503;BME280;40411;50.090;21.954;2024-03-22T05:21:20;64236.59;;;12.23;76.79
54503;BME280;40411;50.090;21.954;2024-03-22T05:23:46;64360.38;;;11.82;78.67
54503;BME280;40411;50.090;21.954;2024-03-22T05:26:12;64315.53;;;11.84;78.24
54503;BME280;40411;50.090;21.954;2024-03-22T05:28:37;64328.00;;;11.74;78.26
54503;BME280;40411;50.090;21.954;2024-03-22T05:31:03;64355.41;;;11.51;79.55
54503;BME280;40411;50.090;21.954;2024-03-22T05:33:29;64400.63;;;11.47;79.30
54503;BME280;40411;50.090;21.954;2024-03-22T05:35:55;64395.97;;;11.31;80.36
54503;BME280;40411;50.090;21.954;2024-03-22T05:38:21;64386.84;;;11.44;79.32
54503;BME280;40411;50.090;21.954;2024-03-22T05:40:47;64425.75;;;11.22;79.61
54503;BME280;40411;50.090;21.954;2024-03-22T05:43:14;64395.00;;;11.49;78.66
54503;BME280;40411;50.090;21.954;2024-03-22T05:45:40;64457.44;;;11.44;79.30
54503;BME280;40411;50.090;21.954;2024-03-22T05:48:05;64343.84;;;11.77;77.80
54503;BME280;40411;50.090;21.954;2024-03-22T05:50:32;64340.41;;;11.81;77.97
54503;BME280;40411;50.090;21.954;2024-03-22T05:52:57;64362.44;;;11.55;80.01
54503;BME280;40411;50.090;21.954;2024-03-22T05:55:23;64299.47;;;11.70;81.09
54503;BME280;40411;50.090;21.954;2024-03-22T05:57:52;64274.44;;;11.71;81.59
54503;BME280;40411;50.090;21.954;2024-03-22T06:00:19;64288.75;;;11.74;82.39
54503;BME280;40411;50.090;21.954;2024-03-22T06:02:44;64229.03;;;11.82;81.98
54503;BME280;40411;50.090;21.954;2024-03-22T06:05:10;64191.25;;;12.07;81.13
54503;BME280;40411;50.090;21.954;2024-03-22T06:07:36;64204.81;;;11.79;83.03
54503;BME280;40411;50.090;21.954;2024-03-22T06:10:08;64203.06;;;11.94;82.52
54503;BME280;40411;50.090;21.954;2024-03-22T06:12:35;64143.63;;;12.26;80.68
54503;BME280;40411;50.090;21.954;2024-03-22T06:15:02;64094.16;;;12.41;80.95
54503;BME280;40411;50.090;21.954;2024-03-22T06:17:34;64040.13;;;12.59;80.12
54503;BME280;40411;50.090;21.954;2024-03-22T06:20:07;64163.31;;;12.13;82.51
54503;BME280;40411;50.090;21.954;2024-03-22T06:22:35;64149.78;;;11.96;83.40
54503;BME280;40411;50.090;21.954;2024-03-22T06:25:01;64233.16;;;11.81;83.70
54503;BME280;40411;50.090;21.954;2024-03-22T06:27:27;64185.19;;;12.12;82.73
54503;BME280;40411;50.090;21.954;2024-03-22T06:29:53;64249.53;;;11.74;84.23
54503;BME280;40411;50.090;21.954;2024-03-22T06:32:19;64140.44;;;11.97;84.53
54503;BME280;40411;50.090;21.954;2024-03-22T06:34:45;64091.97;;;12.10;84.03
54503;BME280;40411;50.090;21.954;2024-03-22T06:37:11;64153.22;;;11.92;84.83
54503;BME280;40411;50.090;21.954;2024-03-22T06:39:37;64152.13;;;11.91;85.39
54503;BME280;40411;50.090;21.954;2024-03-22T06:42:03;64151.25;;;11.85;85.67
54503;BME280;40411;50.090;21.954;2024-03-22T06:44:29;64137.66;;;11.94;84.95
54503;BME280;40411;50.090;21.954;2024-03-22T06:46:55;64117.31;;;12.14;85.42
54503;BME280;40411;50.090;21.954;2024-03-22T06:49:20;64007.06;;;12.48;83.12
54503;BME280;40411;50.090;21.954;2024-03-22T06:51:47;64047.47;;;12.20;84.46
54503;BME280;40411;50.090;21.954;2024-03-22T06:54:12;63991.09;;;12.43;84.21
54503;BME280;40411;50.090;21.954;2024-03-22T06:56:38;64025.72;;;12.24;85.40
54503;BME280;40411;50.090;21.954;2024-03-22T06:59:04;64130.66;;;11.90;86.46
54503;BME280;40411;50.090;21.954;2024-03-22T07:01:30;63956.09;;;12.44;84.46
54503;BME280;40411;50.090;21.954;2024-03-22T07:03:56;63935.69;;;12.45;84.38
54503;BME280;40411;50.090;21.954;2024-03-22T07:06:22;63847.59;;;12.85;82.58
54503;BME280;40411;50.090;21.954;2024-03-22T07:08:48;63813.84;;;13.02;81.79
54503;BME280;40411;50.090;21.954;2024-03-22T07:11:14;63827.44;;;12.90;81.93
54503;BME280;40411;50.090;21.954;2024-03-22T07:13:39;63815.78;;;12.99;82.52
54503;BME280;40411;50.090;21.954;2024-03-22T07:16:06;63961.00;;;12.59;83.81
54503;BME280;40411;50.090;21.954;2024-03-22T07:18:32;63910.69;;;12.68;82.69
54503;BME280;40411;50.090;21.954;2024-03-22T07:20:58;64039.47;;;12.27;83.81
54503;BME280;40411;50.090;21.954;2024-03-22T07:23:27;64022.25;;;12.28;84.72
54503;BME280;40411;50.090;21.954;2024-03-22T07:25:53;63990.94;;;12.60;82.78
54503;BME280;40411;50.090;21.954;2024-03-22T07:28:19;63968.06;;;12.53;83.72
54503;BME280;40411;50.090;21.954;2024-03-22T07:30:45;63826.16;;;12.96;83.16
54503;BME280;40411;50.090;21.954;2024-03-22T07:33:11;63807.13;;;12.93;82.75
54503;BME280;40411;50.090;21.954;2024-03-22T07:35:42;63953.19;;;12.39;85.83
54503;BME280;40411;50.090;21.954;2024-03-22T07:38:08;63793.50;;;12.93;84.12
54503;BME280;40411;50.090;21.954;2024-03-22T07:40:34;63840.03;;;12.80;83.78
54503;BME280;40411;50.090;21.954;2024-03-22T07:43:00;63694.78;;;13.23;83.68
54503;BME280;40411;50.090;21.954;2024-03-22T07:45:34;63793.78;;;12.88;83.90
54503;BME280;40411;50.090;21.954;2024-03-22T07:48:00;63587.56;;;13.53;81.99
54503;BME280;40411;50.090;21.954;2024-03-22T07:50:26;63441.16;;;13.90;80.17
54503;BME280;40411;50.090;21.954;2024-03-22T07:52:52;63388.03;;;14.14;78.38
54503;BME280;40411;50.090;21.954;2024-03-22T07:55:18;63442.09;;;14.01;78.98
54503;BME280;40411;50.090;21.954;2024-03-22T07:57:44;63343.25;;;14.24;78.39
54503;BME280;40411;50.090;21.954;2024-03-22T08:00:10;63325.63;;;14.29;77.46
54503;BME280;40411;50.090;21.954;2024-03-22T08:02:38;63410.69;;;14.16;78.99
54503;BME280;40411;50.090;21.954;2024-03-22T08:05:06;63200.47;;;14.70;76.31
54503;BME280;40411;50.090;21.954;2024-03-22T08:07:32;63245.97;;;14.63;75.93
54503;BME280;40411;50.090;21.954;2024-03-22T08:09:58;63239.44;;;14.57;76.02
54503;BME280;40411;50.090;21.954;2024-03-22T08:12:25;63007.34;;;15.11;75.39
54503;BME280;40411;50.090;21.954;2024-03-22T08:14:51;62793.06;;;15.59;73.13
54503;BME280;40411;50.090;21.954;2024-03-22T08:17:17;62870.00;;;15.45;73.28
54503;BME280;40411;50.090;21.954;2024-03-22T08:19:43;62847.44;;;15.46;74.46
54503;BME280;40411;50.090;21.954;2024-03-22T08:22:10;63022.88;;;15.20;74.84
54503;BME280;40411;50.090;21.954;2024-03-22T08:24:36;63338.66;;;14.42;77.06
54503;BME280;40411;50.090;21.954;2024-03-22T08:27:03;63225.50;;;14.49;78.54
54503;BME280;40411;50.090;21.954;2024-03-22T08:29:29;63341.53;;;14.35;78.10
54503;BME280;40411;50.090;21.954;2024-03-22T08:31:55;63348.97;;;14.37;78.18
54503;BME280;40411;50.090;21.954;2024-03-22T08:34:21;63279.09;;;14.50;78.19
54503;BME280;40411;50.090;21.954;2024-03-22T08:36:47;63241.53;;;14.57;78.40
54503;BME280;40411;50.090;21.954;2024-03-22T08:39:13;63546.56;;;13.76;81.13
54503;BME280;40411;50.090;21.954;2024-03-22T08:41:40;63385.72;;;14.22;79.95
54503;BME280;40411;50.090;21.954;2024-03-22T08:44:06;63310.59;;;14.35;79.88
54503;BME280;40411;50.090;21.954;2024-03-22T08:46:32;63202.94;;;14.65;78.75
54503;BME280;40411;50.090;21.954;2024-03-22T08:48:58;63199.97;;;14.55;78.58
54503;BME280;40411;50.090;21.954;2024-03-22T08:51:24;63213.34;;;14.47;79.95
54503;BME280;40411;50.090;21.954;2024-03-22T08:53:50;63172.31;;;14.61;79.52
54503;BME280;40411;50.090;21.954;2024-03-22T08:56:16;63086.91;;;14.84;79.14
54503;BME280;40411;50.090;21.954;2024-03-22T08:58:42;62914.19;;;15.07;78.58
54503;BME280;40411;50.090;21.954;2024-03-22T09:01:08;63023.41;;;14.86;79.26
54503;BME280;40411;50.090;21.954;2024-03-22T09:03:38;62829.75;;;15.14;78.57
54503;BME280;40411;50.090;21.954;2024-03-22T09:06:04;62793.13;;;15.42;76.94
54503;BME280;40411;50.090;21.954;2024-03-22T09:08:31;63026.88;;;14.80;80.17
54503;BME280;40411;50.090;21.954;2024-03-22T09:10:58;63054.06;;;14.75;80.60
54503;BME280;40411;50.090;21.954;2024-03-22T09:13:25;63164.81;;;14.41;81.86
54503;BME280;40411;50.090;21.954;2024-03-22T09:15:57;63007.09;;;14.86;80.85
54503;BME280;40411;50.090;21.954;2024-03-22T09:18:23;62981.44;;;14.89;80.26
54503;BME280;40411;50.090;21.954;2024-03-22T09:20:49;62736.84;;;15.41;78.89
54503;BME280;40411;50.090;21.954;2024-03-22T09:23:15;62526.13;;;15.73;78.37
54503;BME280;40411;50.090;21.954;2024-03-22T09:25:41;62955.56;;;15.02;79.42
54503;BME280;40411;50.090;21.954;2024-03-22T09:28:07;62576.16;;;15.76;78.02
54503;BME280;40411;50.090;21.954;2024-03-22T09:30:32;62627.34;;;15.59;77.36
54503;BME280;40411;50.090;21.954;2024-03-22T09:32:58;62847.81;;;15.22;79.14
54503;BME280;40411;50.090;21.954;2024-03-22T09:35:24;62885.34;;;15.10;79.91
54503;BME280;40411;50.090;21.954;2024-03-22T09:37:50;62703.31;;;15.47;79.38
54503;BME280;40411;50.090;21.954;2024-03-22T09:40:16;62859.59;;;15.10;80.09
54503;BME280;40411;50.090;21.954;2024-03-22T09:42:43;62723.13;;;15.40;79.49
54503;BME280;40411;50.090;21.954;2024-03-22T09:45:09;62598.25;;;15.52;80.13
54503;BME280;40411;50.090;21.954;2024-03-22T09:47:37;62316.97;;;16.20;77.13
54503;BME280;40411;50.090;21.954;2024-03-22T09:50:06;62434.41;;;15.91;78.45
54503;BME280;40411;50.090;21.954;2024-03-22T09:52:33;62792.88;;;15.32;79.63
54503;BME280;40411;50.090;21.954;2024-03-22T09:54:59;62780.81;;;15.33;79.58
54503;BME280;40411;50.090;21.954;2024-03-22T09:57:26;62453.31;;;15.89;79.05
54503;BME280;40411;50.090;21.954;2024-03-22T09:59:52;62655.81;;;15.61;78.61
54503;BME280;40411;50.090;21.954;2024-03-22T10:02:19;62398.81;;;16.02;77.89
54503;BME280;40411;50.090;21.954;2024-03-22T10:04:46;62348.97;;;16.13;76.47
54503;BME280;40411;50.090;21.954;2024-03-22T10:07:12;62149.31;;;16.41;76.94
54503;BME280;40411;50.090;21.954;2024-03-22T10:09:39;62161.91;;;16.38;77.56
54503;BME280;40411;50.090;21.954;2024-03-22T10:12:06;62558.44;;;15.84;77.76
54503;BME280;40411;50.090;21.954;2024-03-22T10:14:32;62767.31;;;15.40;78.64
54503;BME280;40411;50.090;21.954;2024-03-22T10:16:59;62639.41;;;15.58;78.42
54503;BME280;40411;50.090;21.954;2024-03-22T10:19:25;62534.06;;;15.76;77.23
54503;BME280;40411;50.090;21.954;2024-03-22T10:22:01;62547.69;;;15.74;77.11
54503;BME280;40411;50.090;21.954;2024-03-22T10:24:28;62564.03;;;15.74;78.30
54503;BME280;40411;50.090;21.954;2024-03-22T10:26:55;62678.03;;;15.45;79.52
54503;BME280;40411;50.090;21.954;2024-03-22T10:29:21;62560.00;;;15.83;77.13
54503;BME280;40411;50.090;21.954;2024-03-22T10:31:51;62494.97;;;15.94;75.69
54503;BME280;40411;50.090;21.954;2024-03-22T10:34:17;62413.19;;;16.11;75.57
54503;BME280;40411;50.090;21.954;2024-03-22T10:36:46;62443.09;;;16.07;76.17
54503;BME280;40411;50.090;21.954;2024-03-22T10:39:16;62449.84;;;16.01;75.52
54503;BME280;40411;50.090;21.954;2024-03-22T10:41:46;62657.13;;;15.73;75.51
54503;BME280;40411;50.090;21.954;2024-03-22T10:44:14;62540.84;;;15.97;74.60
54503;BME280;40411;50.090;21.954;2024-03-22T10:46:47;62614.25;;;15.84;74.35
54503;BME280;40411;50.090;21.954;2024-03-22T10:49:17;62545.34;;;16.12;73.46
54503;BME280;40411;50.090;21.954;2024-03-22T10:51:48;62364.84;;;16.48;72.24
54503;BME280;40411;50.090;21.954;2024-03-22T10:54:19;61949.38;;;17.17;70.04
54503;BME280;40411;50.090;21.954;2024-03-22T10:56:47;62570.00;;;16.07;72.60
54503;BME280;40411;50.090;21.954;2024-03-22T10:59:22;62469.78;;;16.25;73.09
54503;BME280;40411;50.090;21.954;2024-03-22T11:01:50;62457.00;;;16.18;74.00
54503;BME280;40411;50.090;21.954;2024-03-22T11:04:22;62575.66;;;16.00;73.34
54503;BME280;40411;50.090;21.954;2024-03-22T11:06:52;62584.50;;;15.96;73.40
54503;BME280;40411;50.090;21.954;2024-03-22T11:09:21;62281.31;;;16.61;71.84
54503;BME280;40411;50.090;21.954;2024-03-22T11:11:47;62320.69;;;16.53;71.07
54503;BME280;40411;50.090;21.954;2024-03-22T11:14:13;62153.59;;;16.85;70.06
54503;BME280;40411;50.090;21.954;2024-03-22T11:16:45;62385.78;;;16.40;71.14
54503;BME280;40411;50.090;21.954;2024-03-22T11:19:11;62034.13;;;17.02;70.11
54503;BME280;40411;50.090;21.954;2024-03-22T11:21:38;62150.94;;;16.83;70.02
54503;BME280;40411;50.090;21.954;2024-03-22T11:24:07;61753.94;;;17.47;68.36
54503;BME280;40411;50.090;21.954;2024-03-22T11:26:33;61623.13;;;17.53;69.10
54503;BME280;40411;50.090;21.954;2024-03-22T11:28:59;61685.38;;;17.57;69.40
54503;BME280;40411;50.090;21.954;2024-03-22T11:31:27;61474.88;;;17.94;68.06
54503;BME280;40411;50.090;21.954;2024-03-22T11:33:53;61624.22;;;17.70;68.47
54503;BME280;40411;50.090;21.954;2024-03-22T11:36:20;61436.88;;;18.03;66.09
54503;BME280;40411;50.090;21.954;2024-03-22T11:38:46;62019.00;;;17.18;68.39
54503;BME280;40411;50.090;21.954;2024-03-22T11:41:18;62056.16;;;16.90;69.96
54503;BME280;40411;50.090;21.954;2024-03-22T11:43:46;61893.97;;;17.09;71.70
54503;BME280;40411;50.090;21.954;2024-03-22T11:46:14;61528.16;;;17.53;71.79
54503;BME280;40411;50.090;21.954;2024-03-22T11:48:41;61724.84;;;17.34;70.72
54503;BME280;40411;50.090;21.954;2024-03-22T11:51:08;61695.84;;;17.37;70.52
54503;BME280;40411;50.090;21.954;2024-03-22T11:53:35;61231.50;;;18.06;69.21
54503;BME280;40411;50.090;21.954;2024-03-22T11:56:02;61246.25;;;18.13;68.93
54503;BME280;40411;50.090;21.954;2024-03-22T11:58:31;61176.53;;;18.14;68.53
54503;BME280;40411;50.090;21.954;2024-03-22T12:00:57;61931.56;;;17.30;67.36
54503;BME280;40411;50.090;21.954;2024-03-22T12:03:23;62031.09;;;17.14;67.85
54503;BME280;40411;50.090;21.954;2024-03-22T12:05:49;62223.06;;;16.79;68.07
54503;BME280;40411;50.090;21.954;2024-03-22T12:08:17;62068.31;;;16.94;69.34
54503;BME280;40411;50.090;21.954;2024-03-22T12:10:44;62134.34;;;17.07;66.70
54503;BME280;40411;50.090;21.954;2024-03-22T12:13:09;61989.63;;;17.35;66.12
54503;BME280;40411;50.090;21.954;2024-03-22T12:15:35;62361.59;;;16.75;67.47
54503;BME280;40411;50.090;21.954;2024-03-22T12:18:02;62492.13;;;16.36;69.63
54503;BME280;40411;50.090;21.954;2024-03-22T12:20:29;62427.44;;;16.42;70.18
54503;BME280;40411;50.090;21.954;2024-03-22T12:22:55;62344.34;;;16.51;71.21
54503;BME280;40411;50.090;21.954;2024-03-22T12:25:21;62043.09;;;17.03;69.79
54503;BME280;40411;50.090;21.954;2024-03-22T12:27:47;62343.91;;;16.56;71.30
54503;BME280;40411;50.090;21.954;2024-03-22T12:30:13;61994.59;;;17.05;70.19
54503;BME280;40411;50.090;21.954;2024-03-22T12:32:39;61874.63;;;17.31;68.96
54503;BME280;40411;50.090;21.954;2024-03-22T12:35:05;61949.38;;;17.17;69.46
54503;BME280;40411;50.090;21.954;2024-03-22T12:37:31;61882.47;;;17.26;69.61
54503;BME280;40411;50.090;21.954;2024-03-22T12:39:57;61458.00;;;17.88;68.13
54503;BME280;40411;50.090;21.954;2024-03-22T12:42:23;61630.50;;;17.60;68.36
54503;BME280;40411;50.090;21.954;2024-03-22T12:44:49;61603.63;;;17.70;67.88
54503;BME280;40411;50.090;21.954;2024-03-22T12:47:15;61299.03;;;18.13;67.24